sensor_id;sensor_type;location;lat;lon;timestamp;pressure;altitude;pressure_sealevel;temperature;humidity
59654;BME280;66556;52.008;5.432;2023-03-20T00:00:35;101967.0;;;19.16;47.42
59654;BME280;66556;52.008;5.432;2023-03-20T00:02:20;101966.0;;;19.25;46.86
59654;BME280;66556;52.008;5.432;2023-03-20T00:03:58;101967.0;;;18.78;48.33
59654;BME280;66556;52.008;5.432;2023-03-20T00:05:35;101963.0;;;18.91;48.38
59654;BME280;66556;52.008;5.432;2023-03-20T00:08:50;101964.0;;;19.43;46.93
59654;BME280;66556;52.008;5.432;2023-03-20T00:10:31;101965.0;;;19.36;46.43
59654;BME280;66556;52.008;5.432;2023-03-20T00:12:14;101966.0;;;18.7;48.57
59654;BME280;66556;52.008;5.432;2023-03-20T00:17:14;101960.0;;;18.16;50.41
59654;BME280;66556;52.008;5.432;2023-03-20T00:18:53;101955.0;;;18.5;49.75
59654;BME280;66556;52.008;5.432;2023-03-20T00:20:30;101958.0;;;18.61;49.42
59654;BME280;66556;52.008;5.432;2023-03-20T00:22:07;101957.0;;;18.75;48.66
59654;BME280;66556;52.008;5.432;2023-03-20T00:25:23;101961.0;;;18.59;49.04
59654;BME280;66556;52.008;5.432;2023-03-20T00:27:00;101960.0;;;18.21;49.89
59654;BME280;66556;52.008;5.432;2023-03-20T00:28:38;101951.0;;;18.61;48.96
59654;BME280;66556;52.008;5.432;2023-03-20T00:31:59;101946.0;;;18.61;48.83
59654;BME280;66556;52.008;5.432;2023-03-20T00:33:35;101950.0;;;18.95;48.27
59654;BME280;66556;52.008;5.432;2023-03-20T00:35:17;101951.0;;;18.52;48.54
59654;BME280;66556;52.008;5.432;2023-03-20T00:36:59;101945.0;;;19.0;47.54
59654;BME280;66556;52.008;5.432;2023-03-20T00:40:12;101943.0;;;19.03;47.22
59654;BME280;66556;52.008;5.432;2023-03-20T00:41:51;101939.0;;;19.11;46.91
59654;BME280;66556;52.008;5.432;2023-03-20T00:43:29;101941.0;;;19.36;46.21
59654;BME280;66556;52.008;5.432;2023-03-20T00:45:11;101936.0;;;19.0;46.68
59654;BME280;66556;52.008;5.432;2023-03-20T00:48:29;101939.0;;;19.14;46.7
59654;BME280;66556;52.008;5.432;2023-03-20T00:50:13;101944.0;;;19.25;46.16
59654;BME280;66556;52.008;5.432;2023-03-20T00:51:51;101955.0;;;19.45;46.13
59654;BME280;66556;52.008;5.432;2023-03-20T00:53:27;101961.0;;;18.77;47.78
59654;BME280;66556;52.008;5.432;2023-03-20T00:56:42;101962.0;;;18.84;47.68
59654;BME280;66556;52.008;5.432;2023-03-20T00:58:20;101968.0;;;18.96;47.28
59654;BME280;66556;52.008;5.432;2023-03-20T00:59:58;101980.0;;;19.02;47.16
59654;BME280;66556;52.008;5.432;2023-03-20T01:03:16;101982.0;;;19.0;47.1
59654;BME280;66556;52.008;5.432;2023-03-20T01:04:54;101988.0;;;19.11;46.86
59654;BME280;66556;52.008;5.432;2023-03-20T01:06:31;101989.0;;;19.16;47.14
59654;BME280;66556;52.008;5.432;2023-03-20T01:08:11;101993.0;;;19.34;46.12
59654;BME280;66556;52.008;5.432;2023-03-20T01:11:31;102000.0;;;19.27;46.21
59654;BME280;66556;52.008;5.432;2023-03-20T01:13:16;101998.0;;;19.36;46.02
59654;BME280;66556;52.008;5.432;2023-03-20T01:14:55;102007.0;;;19.16;46.57
59654;BME280;66556;52.008;5.432;2023-03-20T01:16:33;101999.0;;;19.28;46.35
59654;BME280;66556;52.008;5.432;2023-03-20T01:19:49;101996.0;;;19.38;45.88
59654;BME280;66556;52.008;5.432;2023-03-20T01:21:25;101982.0;;;19.06;46.28
59654;BME280;66556;52.008;5.432;2023-03-20T01:23:02;101980.0;;;18.88;46.48
59654;BME280;66556;52.008;5.432;2023-03-20T01:26:21;101976.0;;;19.09;46.39
59654;BME280;66556;52.008;5.432;2023-03-20T01:28:00;101981.0;;;18.84;46.98
59654;BME280;66556;52.008;5.432;2023-03-20T01:29:36;101985.0;;;19.28;45.44
59654;BME280;66556;52.008;5.432;2023-03-20T01:31:15;101988.0;;;19.41;44.83
59654;BME280;66556;52.008;5.432;2023-03-20T01:34:30;101982.0;;;18.79;46.08
59654;BME280;66556;52.008;5.432;2023-03-20T01:36:08;101984.0;;;18.91;45.88
59654;BME280;66556;52.008;5.432;2023-03-20T01:37:45;101981.0;;;18.82;45.29
59654;BME280;66556;52.008;5.432;2023-03-20T01:41:12;101980.0;;;18.84;45.53
59654;BME280;66556;52.008;5.432;2023-03-20T01:42:49;101981.0;;;18.77;45.33
59654;BME280;66556;52.008;5.432;2023-03-20T01:44:27;101984.0;;;18.93;45.24
59654;BME280;66556;52.008;5.432;2023-03-20T01:46:16;101988.0;;;19.03;44.41
59654;BME280;66556;52.008;5.432;2023-03-20T01:47:54;101980.0;;;18.66;45.59
59654;BME280;66556;52.008;5.432;2023-03-20T01:52:11;101986.0;;;19.16;44.2
59654;BME280;66556;52.008;5.432;2023-03-20T01:55:28;101987.0;;;19.02;44.19
59654;BME280;66556;52.008;5.432;2023-03-20T01:57:09;101981.0;;;18.68;44.99
59654;BME280;66556;52.008;5.432;2023-03-20T01:58:51;101976.0;;;18.37;45.95
59654;BME280;66556;52.008;5.432;2023-03-20T02:00:31;101972.0;;;18.95;44.55
59654;BME280;66556;52.008;5.432;2023-03-20T02:03:52;101971.0;;;18.79;44.7
59654;BME280;66556;52.008;5.432;2023-03-20T02:05:29;101970.0;;;18.96;44.55
59654;BME280;66556;52.008;5.432;2023-03-20T02:07:07;101960.0;;;18.13;46.12
59654;BME280;66556;52.008;5.432;2023-03-20T02:08:48;101965.0;;;18.95;44.39
59654;BME280;66556;52.008;5.432;2023-03-20T02:12:02;101966.0;;;19.11;43.99
59654;BME280;66556;52.008;5.432;2023-03-20T02:13:40;101978.0;;;18.52;45.06
59654;BME280;66556;52.008;5.432;2023-03-20T02:15:16;101971.0;;;18.59;45.4
59654;BME280;66556;52.008;5.432;2023-03-20T02:18:30;101977.0;;;18.73;45.23
59654;BME280;66556;52.008;5.432;2023-03-20T02:20:15;101984.0;;;18.34;46.26
59654;BME280;66556;52.008;5.432;2023-03-20T02:23:25;101975.0;;;18.21;46.11
59654;BME280;66556;52.008;5.432;2023-03-20T02:25:32;101980.0;;;18.34;46.5
59654;BME280;66556;52.008;5.432;2023-03-20T02:26:27;101978.0;;;18.03;47.41
59654;BME280;66556;52.008;5.432;2023-03-20T02:29:03;101973.0;;;17.77;47.99
59654;BME280;66556;52.008;5.432;2023-03-20T02:31:18;101961.0;;;17.91;47.54
59654;BME280;66556;52.008;5.432;2023-03-20T02:33:19;101956.0;;;18.03;47.06
59654;BME280;66556;52.008;5.432;2023-03-20T02:40:12;101948.0;;;18.43;45.67
59654;BME280;66556;52.008;5.432;2023-03-20T02:43:45;101952.0;;;18.06;46.15
59654;BME280;66556;52.008;5.432;2023-03-20T02:45:32;101955.0;;;18.11;46.13
59654;BME280;66556;52.008;5.432;2023-03-20T02:47:13;101953.0;;;17.75;46.5
59654;BME280;66556;52.008;5.432;2023-03-20T02:48:56;101956.0;;;18.2;45.47
59654;BME280;66556;52.008;5.432;2023-03-20T02:50:45;101958.0;;;18.25;45.08
59654;BME280;66556;52.008;5.432;2023-03-20T02:54:12;101963.0;;;18.25;45.15
59654;BME280;66556;52.008;5.432;2023-03-20T02:56:02;101955.0;;;17.52;46.63
59654;BME280;66556;52.008;5.432;2023-03-20T02:57:50;101953.0;;;18.16;45.52
59654;BME280;66556;52.008;5.432;2023-03-20T02:59:35;101958.0;;;18.09;45.32
59654;BME280;66556;52.008;5.432;2023-03-20T03:01:21;101956.0;;;18.07;45.61
59654;BME280;66556;52.008;5.432;2023-03-20T03:04:48;101945.0;;;17.84;45.96
59654;BME280;66556;52.008;5.432;2023-03-20T03:06:29;101931.0;;;17.41;47.11
59654;BME280;66556;52.008;5.432;2023-03-20T03:08:07;101919.0;;;17.04;48.37
59654;BME280;66556;52.008;5.432;2023-03-20T03:09:50;101910.0;;;17.25;47.91
59654;BME280;66556;52.008;5.432;2023-03-20T03:11:29;101914.0;;;17.88;46.5
59654;BME280;66556;52.008;5.432;2023-03-20T03:14:51;101914.0;;;17.66;46.87
59654;BME280;66556;52.008;5.432;2023-03-20T03:16:34;101906.0;;;17.68;46.78
59654;BME280;66556;52.008;5.432;2023-03-20T03:18:14;101898.0;;;17.23;48.08
59654;BME280;66556;52.008;5.432;2023-03-20T03:19:57;101900.0;;;16.84;49.43
59654;BME280;66556;52.008;5.432;2023-03-20T03:23:26;101903.0;;;17.48;48.04
59654;BME280;66556;52.008;5.432;2023-03-20T03:25:03;101914.0;;;17.31;47.61
59654;BME280;66556;52.008;5.432;2023-03-20T03:26:40;101910.0;;;17.2;48.2
59654;BME280;66556;52.008;5.432;2023-03-20T03:28:23;101908.0;;;17.03;48.53
59654;BME280;66556;52.008;5.432;2023-03-20T03:31:47;101908.0;;;17.34;47.13
59654;BME280;66556;52.008;5.432;2023-03-20T03:33:27;101909.0;;;16.87;48.72
59654;BME280;66556;52.008;5.432;2023-03-20T03:35:10;101916.0;;;17.2;47.73
59654;BME280;66556;52.008;5.432;2023-03-20T03:36:53;101914.0;;;17.16;47.86
59654;BME280;66556;52.008;5.432;2023-03-20T03:40:27;101905.0;;;17.36;46.87
59654;BME280;66556;52.008;5.432;2023-03-20T03:42:13;101901.0;;;17.14;47.47
59654;BME280;66556;52.008;5.432;2023-03-20T03:44:06;101907.0;;;17.59;46.65
59654;BME280;66556;52.008;5.432;2023-03-20T03:45:51;101900.0;;;17.37;46.86
59654;BME280;66556;52.008;5.432;2023-03-20T03:47:33;101898.0;;;17.36;46.87
59654;BME280;66556;52.008;5.432;2023-03-20T03:49:17;101900.0;;;17.31;47.01
59654;BME280;66556;52.008;5.432;2023-03-20T03:52:36;101897.0;;;16.89;47.79
59654;BME280;66556;52.008;5.432;2023-03-20T03:54:17;101896.0;;;17.04;47.34
59654;BME280;66556;52.008;5.432;2023-03-20T03:55:59;101892.0;;;17.11;46.78
59654;BME280;66556;52.008;5.432;2023-03-20T03:57:40;101885.0;;;16.56;48.81
59654;BME280;66556;52.008;5.432;2023-03-20T04:01:04;101885.0;;;16.77;48.35
59654;BME280;66556;52.008;5.432;2023-03-20T04:02:46;101881.0;;;16.9;48.11
59654;BME280;66556;52.008;5.432;2023-03-20T04:04:24;101877.0;;;16.29;49.49
59654;BME280;66556;52.008;5.432;2023-03-20T04:06:04;101870.0;;;16.63;48.94
59654;BME280;66556;52.008;5.432;2023-03-20T04:09:21;101873.0;;;16.7;48.12
59654;BME280;66556;52.008;5.432;2023-03-20T04:10:58;101871.0;;;16.8;48.76
59654;BME280;66556;52.008;5.432;2023-03-20T04:12:36;101863.0;;;17.45;46.75
59654;BME280;66556;52.008;5.432;2023-03-20T04:14:13;101870.0;;;16.93;47.79
59654;BME280;66556;52.008;5.432;2023-03-20T04:17:27;101869.0;;;17.41;46.57
59654;BME280;66556;52.008;5.432;2023-03-20T04:19:04;101863.0;;;16.86;47.83
59654;BME280;66556;52.008;5.432;2023-03-20T04:20:41;101863.0;;;17.36;47.21
59654;BME280;66556;52.008;5.432;2023-03-20T04:23:54;101861.0;;;17.18;47.07
59654;BME280;66556;52.008;5.432;2023-03-20T04:25:31;101861.0;;;17.52;46.49
59654;BME280;66556;52.008;5.432;2023-03-20T04:27:07;101855.0;;;17.25;47.3
59654;BME280;66556;52.008;5.432;2023-03-20T04:30:20;101863.0;;;16.97;47.81
59654;BME280;66556;52.008;5.432;2023-03-20T04:31:57;101859.0;;;16.77;48.18
59654;BME280;66556;52.008;5.432;2023-03-20T04:33:33;101852.0;;;17.02;47.86
59654;BME280;66556;52.008;5.432;2023-03-20T04:35:10;101855.0;;;17.11;46.92
59654;BME280;66556;52.008;5.432;2023-03-20T04:38:24;101855.0;;;17.16;47.15
59654;BME280;66556;52.008;5.432;2023-03-20T04:40:02;101861.0;;;16.77;47.82
59654;BME280;66556;52.008;5.432;2023-03-20T04:41:38;101866.0;;;17.16;46.65
59654;BME280;66556;52.008;5.432;2023-03-20T04:44:52;101864.0;;;16.66;48.11
59654;BME280;66556;52.008;5.432;2023-03-20T04:46:29;101870.0;;;17.12;47.18
59654;BME280;66556;52.008;5.432;2023-03-20T04:48:06;101871.0;;;16.84;47.55
59654;BME280;66556;52.008;5.432;2023-03-20T04:51:19;101870.0;;;17.45;46.35
59654;BME280;66556;52.008;5.432;2023-03-20T04:52:56;101881.0;;;17.41;45.92
59654;BME280;66556;52.008;5.432;2023-03-20T04:54:33;101875.0;;;17.34;46.12
59654;BME280;66556;52.008;5.432;2023-03-20T04:56:09;101872.0;;;17.36;46.35
59654;BME280;66556;52.008;5.432;2023-03-20T04:59:22;101873.0;;;16.72;47.53
59654;BME280;66556;52.008;5.432;2023-03-20T05:00:58;101865.0;;;17.36;46.57
59654;BME280;66556;52.008;5.432;2023-03-20T05:02:34;101865.0;;;17.21;46.6
59654;BME280;66556;52.008;5.432;2023-03-20T05:05:47;101871.0;;;16.95;47.08
59654;BME280;66556;52.008;5.432;2023-03-20T05:07:23;101864.0;;;16.86;47.8
59654;BME280;66556;52.008;5.432;2023-03-20T05:08:59;101860.0;;;16.97;47.33
59654;BME280;66556;52.008;5.432;2023-03-20T05:12:12;101856.0;;;17.12;47.15
59654;BME280;66556;52.008;5.432;2023-03-20T05:13:48;101855.0;;;17.56;45.74
59654;BME280;66556;52.008;5.432;2023-03-20T05:15:24;101858.0;;;17.55;46.0
59654;BME280;66556;52.008;5.432;2023-03-20T05:17:02;101859.0;;;17.59;45.98
59654;BME280;66556;52.008;5.432;2023-03-20T05:20:14;101853.0;;;17.16;46.62
59654;BME280;66556;52.008;5.432;2023-03-20T05:21:51;101857.0;;;17.41;45.93
59654;BME280;66556;52.008;5.432;2023-03-20T05:23:27;101855.0;;;17.5;46.09
59654;BME280;66556;52.008;5.432;2023-03-20T05:26:40;101851.0;;;17.88;45.52
59654;BME280;66556;52.008;5.432;2023-03-20T05:28:17;101851.0;;;17.34;45.87
59654;BME280;66556;52.008;5.432;2023-03-20T05:29:53;101856.0;;;17.52;45.95
59654;BME280;66556;52.008;5.432;2023-03-20T05:33:06;101859.0;;;17.95;44.77
59654;BME280;66556;52.008;5.432;2023-03-20T05:34:42;101859.0;;;17.77;44.64
59654;BME280;66556;52.008;5.432;2023-03-20T05:36:18;101858.0;;;18.02;44.34
59654;BME280;66556;52.008;5.432;2023-03-20T05:37:54;101869.0;;;17.7;45.16
59654;BME280;66556;52.008;5.432;2023-03-20T05:41:06;101867.0;;;18.34;43.41
59654;BME280;66556;52.008;5.432;2023-03-20T05:42:43;101863.0;;;18.36;43.59
59654;BME280;66556;52.008;5.432;2023-03-20T05:44:20;101860.0;;;17.88;44.84
59654;BME280;66556;52.008;5.432;2023-03-20T05:47:32;101864.0;;;18.23;43.98
59654;BME280;66556;52.008;5.432;2023-03-20T05:49:08;101861.0;;;18.02;43.92
59654;BME280;66556;52.008;5.432;2023-03-20T05:50:44;101863.0;;;17.97;44.3
59654;BME280;66556;52.008;5.432;2023-03-20T05:53:57;101867.0;;;17.62;45.07
59654;BME280;66556;52.008;5.432;2023-03-20T05:55:33;101870.0;;;17.98;44.6
59654;BME280;66556;52.008;5.432;2023-03-20T05:57:09;101880.0;;;17.7;45.03
59654;BME280;66556;52.008;5.432;2023-03-20T06:00:22;101884.0;;;17.22;46.0
59654;BME280;66556;52.008;5.432;2023-03-20T06:07:19;101887.0;;;17.3;46.2
59654;BME280;66556;52.008;5.432;2023-03-20T06:10:32;101889.0;;;17.61;45.7
59654;BME280;66556;52.008;5.432;2023-03-20T06:12:08;101886.0;;;18.2;44.19
59654;BME280;66556;52.008;5.432;2023-03-20T06:13:44;101890.0;;;17.59;45.36
59654;BME280;66556;52.008;5.432;2023-03-20T06:16:57;101891.0;;;17.87;45.0
59654;BME280;66556;52.008;5.432;2023-03-20T06:18:33;101893.0;;;17.75;45.06
59654;BME280;66556;52.008;5.432;2023-03-20T06:20:10;101887.0;;;17.84;44.97
59654;BME280;66556;52.008;5.432;2023-03-20T06:23:22;101886.0;;;18.0;44.69
59654;BME280;66556;52.008;5.432;2023-03-20T06:25:00;101884.0;;;18.16;44.43
59654;BME280;66556;52.008;5.432;2023-03-20T06:26:36;101883.0;;;18.03;44.86
59654;BME280;66556;52.008;5.432;2023-03-20T06:28:12;101888.0;;;17.53;46.0
59654;BME280;66556;52.008;5.432;2023-03-20T06:31:24;101890.0;;;17.16;46.69
59654;BME280;66556;52.008;5.432;2023-03-20T06:33:00;101893.0;;;16.95;47.06
59654;BME280;66556;52.008;5.432;2023-03-20T06:34:36;101890.0;;;17.59;46.09
59654;BME280;66556;52.008;5.432;2023-03-20T06:37:49;101898.0;;;17.46;46.51
59654;BME280;66556;52.008;5.432;2023-03-20T06:39:26;101898.0;;;17.36;46.56
59654;BME280;66556;52.008;5.432;2023-03-20T06:41:02;101905.0;;;17.68;45.67
59654;BME280;66556;52.008;5.432;2023-03-20T06:44:14;101905.0;;;17.54;46.11
59654;BME280;66556;52.008;5.432;2023-03-20T06:45:50;101911.0;;;17.41;46.9
59654;BME280;66556;52.008;5.432;2023-03-20T06:47:27;101910.0;;;17.91;44.91
59654;BME280;66556;52.008;5.432;2023-03-20T06:49:04;101908.0;;;17.79;45.32
59654;BME280;66556;52.008;5.432;2023-03-20T06:52:18;101913.0;;;17.82;44.93
59654;BME280;66556;52.008;5.432;2023-03-20T06:53:55;101916.0;;;17.93;44.91
59654;BME280;66556;52.008;5.432;2023-03-20T06:55:31;101915.0;;;17.77;44.77
59654;BME280;66556;52.008;5.432;2023-03-20T06:58:44;101919.0;;;17.29;46.29
59654;BME280;66556;52.008;5.432;2023-03-20T07:00:20;101915.0;;;17.7;45.34
59654;BME280;66556;52.008;5.432;2023-03-20T07:01:57;101913.0;;;16.86;47.51
59654;BME280;66556;52.008;5.432;2023-03-20T07:05:09;101914.0;;;17.32;46.18
59654;BME280;66556;52.008;5.432;2023-03-20T07:06:45;101910.0;;;18.09;44.4
59654;BME280;66556;52.008;5.432;2023-03-20T07:08:22;101918.0;;;17.71;45.03
59654;BME280;66556;52.008;5.432;2023-03-20T07:09:58;101919.0;;;17.7;45.29
59654;BME280;66556;52.008;5.432;2023-03-20T07:13:11;101919.0;;;17.68;45.4
59654;BME280;66556;52.008;5.432;2023-03-20T07:14:47;101920.0;;;17.64;46.09
59654;BME280;66556;52.008;5.432;2023-03-20T07:16:24;101918.0;;;17.46;45.94
59654;BME280;66556;52.008;5.432;2023-03-20T07:19:37;101926.0;;;16.88;47.26
59654;BME280;66556;52.008;5.432;2023-03-20T07:21:17;101919.0;;;17.23;47.1
59654;BME280;66556;52.008;5.432;2023-03-20T07:22:54;101923.0;;;17.82;45.72
59654;BME280;66556;52.008;5.432;2023-03-20T07:26:07;101927.0;;;17.59;45.9
59654;BME280;66556;52.008;5.432;2023-03-20T07:27:43;101925.0;;;17.75;45.56
59654;BME280;66556;52.008;5.432;2023-03-20T07:29:20;101927.0;;;17.41;46.21
59654;BME280;66556;52.008;5.432;2023-03-20T07:30:56;101924.0;;;17.57;46.55
59654;BME280;66556;52.008;5.432;2023-03-20T07:34:11;101927.0;;;17.25;46.92
59654;BME280;66556;52.008;5.432;2023-03-20T07:35:51;101923.0;;;17.86;45.8
59654;BME280;66556;52.008;5.432;2023-03-20T07:37:28;101930.0;;;17.16;46.83
59654;BME280;66556;52.008;5.432;2023-03-20T07:40:40;101922.0;;;16.93;47.39
59654;BME280;66556;52.008;5.432;2023-03-20T07:42:16;101928.0;;;17.29;46.87
59654;BME280;66556;52.008;5.432;2023-03-20T07:43:52;101927.0;;;17.73;45.79
59654;BME280;66556;52.008;5.432;2023-03-20T07:47:05;101927.0;;;17.45;46.06
59654;BME280;66556;52.008;5.432;2023-03-20T07:48:41;101924.0;;;17.91;45.37
59654;BME280;66556;52.008;5.432;2023-03-20T07:50:17;101927.0;;;17.91;45.61
59654;BME280;66556;52.008;5.432;2023-03-20T07:51:54;101925.0;;;17.36;46.61
59654;BME280;66556;52.008;5.432;2023-03-20T07:55:07;101921.0;;;16.86;48.12
59654;BME280;66556;52.008;5.432;2023-03-20T07:56:43;101918.0;;;17.02;47.25
59654;BME280;66556;52.008;5.432;2023-03-20T07:58:19;101923.0;;;17.45;46.44
59654;BME280;66556;52.008;5.432;2023-03-20T08:01:32;101923.0;;;17.06;47.21
59654;BME280;66556;52.008;5.432;2023-03-20T08:03:08;101923.0;;;17.52;46.13
59654;BME280;66556;52.008;5.432;2023-03-20T08:04:45;101920.0;;;17.21;47.19
59654;BME280;66556;52.008;5.432;2023-03-20T08:07:57;101925.0;;;17.68;46.25
59654;BME280;66556;52.008;5.432;2023-03-20T08:09:34;101925.0;;;17.68;46.1
59654;BME280;66556;52.008;5.432;2023-03-20T08:11:12;101919.0;;;17.03;46.75
59654;BME280;66556;52.008;5.432;2023-03-20T08:12:49;101922.0;;;17.2;46.58
59654;BME280;66556;52.008;5.432;2023-03-20T08:16:01;101922.0;;;17.32;46.62
59654;BME280;66556;52.008;5.432;2023-03-20T08:17:41;101920.0;;;17.37;46.56
59654;BME280;66556;52.008;5.432;2023-03-20T08:19:17;101926.0;;;16.65;47.26
59654;BME280;66556;52.008;5.432;2023-03-20T08:22:29;101916.0;;;17.14;47.4
59654;BME280;66556;52.008;5.432;2023-03-20T08:24:06;101917.0;;;17.75;45.48
59654;BME280;66556;52.008;5.432;2023-03-20T08:25:46;101913.0;;;17.66;45.7
59654;BME280;66556;52.008;5.432;2023-03-20T08:27:22;101915.0;;;17.73;45.65
59654;BME280;66556;52.008;5.432;2023-03-20T08:30:34;101917.0;;;17.59;46.22
59654;BME280;66556;52.008;5.432;2023-03-20T08:32:10;101920.0;;;17.7;46.22
59654;BME280;66556;52.008;5.432;2023-03-20T08:33:47;101919.0;;;17.43;46.04
59654;BME280;66556;52.008;5.432;2023-03-20T08:37:02;101915.0;;;17.57;45.95
59654;BME280;66556;52.008;5.432;2023-03-20T08:38:39;101913.0;;;17.11;46.31
59654;BME280;66556;52.008;5.432;2023-03-20T08:40:15;101917.0;;;17.57;46.33
59654;BME280;66556;52.008;5.432;2023-03-20T08:43:27;101914.0;;;17.25;46.71
59654;BME280;66556;52.008;5.432;2023-03-20T08:45:04;101918.0;;;17.05;48.22
59654;BME280;66556;52.008;5.432;2023-03-20T08:46:41;101911.0;;;17.5;46.97
59654;BME280;66556;52.008;5.432;2023-03-20T08:48:17;101917.0;;;17.87;46.13
59654;BME280;66556;52.008;5.432;2023-03-20T08:51:28;101919.0;;;17.3;46.86
59654;BME280;66556;52.008;5.432;2023-03-20T08:53:04;101910.0;;;18.05;45.43
59654;BME280;66556;52.008;5.432;2023-03-20T08:54:41;101914.0;;;17.7;45.8
59654;BME280;66556;52.008;5.432;2023-03-20T08:57:54;101910.0;;;18.14;44.89
59654;BME280;66556;52.008;5.432;2023-03-20T08:59:31;101914.0;;;17.95;45.02
59654;BME280;66556;52.008;5.432;2023-03-20T09:01:08;101913.0;;;17.95;44.83
59654;BME280;66556;52.008;5.432;2023-03-20T09:04:21;101917.0;;;18.52;43.97
59654;BME280;66556;52.008;5.432;2023-03-20T09:05:57;101915.0;;;18.38;43.99
59654;BME280;66556;52.008;5.432;2023-03-20T09:07:33;101923.0;;;17.75;45.33
59654;BME280;66556;52.008;5.432;2023-03-20T09:10:46;101922.0;;;18.03;45.29
59654;BME280;66556;52.008;5.432;2023-03-20T09:12:23;101928.0;;;17.91;44.99
59654;BME280;66556;52.008;5.432;2023-03-20T09:13:59;101927.0;;;18.07;45.7
59654;BME280;66556;52.008;5.432;2023-03-20T09:15:36;101936.0;;;17.98;45.47
59654;BME280;66556;52.008;5.432;2023-03-20T09:18:48;101936.0;;;17.95;45.8
59654;BME280;66556;52.008;5.432;2023-03-20T09:20:24;101932.0;;;18.45;44.51
59654;BME280;66556;52.008;5.432;2023-03-20T09:22:00;101932.0;;;17.5;47.13
59654;BME280;66556;52.008;5.432;2023-03-20T09:25:13;101935.0;;;18.0;46.47
59654;BME280;66556;52.008;5.432;2023-03-20T09:26:50;101934.0;;;17.45;48.1
59654;BME280;66556;52.008;5.432;2023-03-20T09:28:26;101933.0;;;17.72;47.26
59654;BME280;66556;52.008;5.432;2023-03-20T09:31:39;101935.0;;;17.5;48.07
59654;BME280;66556;52.008;5.432;2023-03-20T09:33:16;101932.0;;;17.72;48.18
59654;BME280;66556;52.008;5.432;2023-03-20T09:34:52;101938.0;;;17.66;48.07
59654;BME280;66556;52.008;5.432;2023-03-20T09:36:28;101938.0;;;17.77;47.52
59654;BME280;66556;52.008;5.432;2023-03-20T09:39:41;101942.0;;;17.68;47.93
59654;BME280;66556;52.008;5.432;2023-03-20T09:41:20;101942.0;;;17.52;48.8
59654;BME280;66556;52.008;5.432;2023-03-20T09:43:04;101943.0;;;17.72;48.86
59654;BME280;66556;52.008;5.432;2023-03-20T09:44:50;101940.0;;;17.57;49.62
59654;BME280;66556;52.008;5.432;2023-03-20T09:48:32;101935.0;;;17.48;49.61
59654;BME280;66556;52.008;5.432;2023-03-20T09:50:22;101939.0;;;18.07;48.29
59654;BME280;66556;52.008;5.432;2023-03-20T09:52:03;101932.0;;;17.91;48.21
59654;BME280;66556;52.008;5.432;2023-03-20T09:53:55;101935.0;;;17.18;49.25
59654;BME280;66556;52.008;5.432;2023-03-20T09:55:36;101930.0;;;17.91;49.07
59654;BME280;66556;52.008;5.432;2023-03-20T09:59:02;101934.0;;;17.64;49.33
59654;BME280;66556;52.008;5.432;2023-03-20T10:00:42;101928.0;;;18.34;48.4
59654;BME280;66556;52.008;5.432;2023-03-20T10:02:26;101923.0;;;18.27;48.18
59654;BME280;66556;52.008;5.432;2023-03-20T10:04:11;101924.0;;;18.06;48.11
59654;BME280;66556;52.008;5.432;2023-03-20T10:05:52;101922.0;;;18.11;47.94
59654;BME280;66556;52.008;5.432;2023-03-20T10:09:14;101930.0;;;17.46;49.28
59654;BME280;66556;52.008;5.432;2023-03-20T10:10:56;101927.0;;;18.0;48.26
59654;BME280;66556;52.008;5.432;2023-03-20T10:12:48;101927.0;;;18.09;48.1
59654;BME280;66556;52.008;5.432;2023-03-20T10:14:33;101923.0;;;18.43;47.8
59654;BME280;66556;52.008;5.432;2023-03-20T10:16:26;101922.0;;;18.05;48.38
59654;BME280;66556;52.008;5.432;2023-03-20T10:20:04;101927.0;;;18.61;47.37
59654;BME280;66556;52.008;5.432;2023-03-20T10:21:47;101918.0;;;18.57;47.62
59654;BME280;66556;52.008;5.432;2023-03-20T10:23:28;101916.0;;;18.52;46.36
59654;BME280;66556;52.008;5.432;2023-03-20T10:25:18;101918.0;;;18.48;47.5
59654;BME280;66556;52.008;5.432;2023-03-20T10:27:04;101922.0;;;18.36;48.54
59654;BME280;66556;52.008;5.432;2023-03-20T10:28:50;101922.0;;;18.3;46.49
59654;BME280;66556;52.008;5.432;2023-03-20T10:32:27;101922.0;;;17.91;46.79
59654;BME280;66556;52.008;5.432;2023-03-20T10:34:34;101916.0;;;18.36;45.33
59654;BME280;66556;52.008;5.432;2023-03-20T10:36:30;101916.0;;;18.86;44.95
59654;BME280;66556;52.008;5.432;2023-03-20T10:38:20;101912.0;;;18.87;45.62
59654;BME280;66556;52.008;5.432;2023-03-20T10:40:16;101920.0;;;18.62;45.65
59654;BME280;66556;52.008;5.432;2023-03-20T10:42:01;101908.0;;;18.78;45.57
59654;BME280;66556;52.008;5.432;2023-03-20T10:43:43;101916.0;;;18.72;45.42
59654;BME280;66556;52.008;5.432;2023-03-20T10:47:12;101916.0;;;18.61;45.16
59654;BME280;66556;52.008;5.432;2023-03-20T10:48:56;101912.0;;;18.8;45.95
59654;BME280;66556;52.008;5.432;2023-03-20T10:50:39;101915.0;;;18.59;45.25
59654;BME280;66556;52.008;5.432;2023-03-20T10:52:21;101908.0;;;19.11;44.73
59654;BME280;66556;52.008;5.432;2023-03-20T10:54:03;101907.0;;;18.68;45.78
59654;BME280;66556;52.008;5.432;2023-03-20T10:57:22;101905.0;;;18.31;46.91
59654;BME280;66556;52.008;5.432;2023-03-20T10:59:04;101907.0;;;18.48;47.83
59654;BME280;66556;52.008;5.432;2023-03-20T11:00:42;101905.0;;;18.41;46.34
59654;BME280;66556;52.008;5.432;2023-03-20T11:02:20;101905.0;;;18.77;46.19
59654;BME280;66556;52.008;5.432;2023-03-20T11:05:36;101909.0;;;18.53;47.35
59654;BME280;66556;52.008;5.432;2023-03-20T11:07:20;101908.0;;;18.81;45.99
59654;BME280;66556;52.008;5.432;2023-03-20T11:09:09;101905.0;;;18.93;45.72
59654;BME280;66556;52.008;5.432;2023-03-20T11:10:57;101916.0;;;18.77;45.94
59654;BME280;66556;52.008;5.432;2023-03-20T11:14:17;101915.0;;;18.59;46.14
59654;BME280;66556;52.008;5.432;2023-03-20T11:15:54;101910.0;;;18.56;46.43
59654;BME280;66556;52.008;5.432;2023-03-20T11:17:32;101909.0;;;18.84;46.28
59654;BME280;66556;52.008;5.432;2023-03-20T11:19:10;101908.0;;;18.89;47.48
59654;BME280;66556;52.008;5.432;2023-03-20T11:22:27;101905.0;;;18.55;47.14